Tijeras, NM (87059)

6:53 AM MDT on September 02, 2014 (GMT -0600)
Avian Ambassadors | Change Station
CLOSE
Current Station
Personal Weather Station
Location: Tijeras, NM
Elevation: 7300 ft
Nearby Weather Stations

Elev 7300 ft 35.03 °N, 106.28 °W | Updated 5 seconds ago

Clear
Clear
57.3 °F
Feels Like 57.3 °F
N
0.0
Wind Variable Wind from SW
Gusts 1.0 mph

Today
High -- | Low -- °F
--% Chance of Precip.
Yesterday
High -- | Low -- °F
Precip. -- in
6:38 AM 7:30 PM
Waxing Crescent, 51% visible
Pressure 30.21 in
Visibility 10.0 miles
Clouds Clear
Dew Point 37 °F
Humidity 47%
Rainfall 0.00 in
Snow Depth Not available.
UV 0 out of 12
Pollen 8.70 out of 12
Air Quality Not available.
Flu Activity Not available.
METAR K0E0 021235Z AUTO 36004KT 10SM CLR 06/03 A3021 RMK AO2 T00610031

More Conditions Fewer Conditions

Pressure 30.21 in
Visibility 10.0 miles
Clouds Clear
Dew Point 37 °F
Humidity 47%
Rainfall 0.00 in
Snow Depth Not available.
UV 0 out of 12
Pollen 8.70 out of 12
Air Quality Not available.
Flu Activity Not available.
METAR K0E0 021235Z AUTO 36004KT 10SM CLR 06/03 A3021 RMK AO2 T00610031

More Conditions Fewer Conditions

10-Day Weather Forecast

Almanac

Astronomy

Sep. 02, 2014 Rise Set
Actual Time 6:38 AM MDT 7:30 PM MDT
Civil Twilight 6:12 AM MDT 7:56 PM MDT
Nautical Twilight 5:42 AM MDT 8:26 PM MDT
Astronomical Twilight 5:10 AM MDT 8:57 PM MDT
Moon 2:09 PM MDT No Moon Set
Length of Visible Light 13h 43m
Length of Day
12h 51m
Tomorrow will be 2m 6s shorter.
Waxing Crescent, 51% of the Moon is Illuminated
Today
Waxing Crescent
Sep 8
Full
Sep 15
Last Quarter
Sep 24
New
Oct 1
First Quarter

Today's Extremes

State Highs State Lows

Community

WunderPhotos

Upload Photos

1,749,642 photos uploaded!

Nearby

Snow Depth

Station Depth Elevation
Quemazon 1 in 9500 ft
Wesner Springs 2 in 11120 ft
Senorita Divide #2 0 in 8600 ft
Gallegos Peak 0 in 9800 ft
Bateman 0 in 9300 ft

Earthquake Activity

City Distance Mag. Time & Date
No recent earthquake activity has been reported nearby.
Minimum magnitude displayed is 2.5.

Coastal Water Temperatures

Place Temperature
No Stations Reporting

Nearby Weather Stations